Time;durP1;ratioP1;P1;durP2;ratioP2;P2;SDS_P1;SDS_P2;PMS_P1;PMS_P2;Temp;Humidity;BMP_temperature;BMP_pressure;BME280_temperature;BME280_humidity;BME280_pressure;Samples;Min_cycle;Max_cycle;Signal;HPM_P1;HPM_P2
2022/04/13 00:01:09;;;;;;;1.30;1.15;;;;;;;3.53;100.00;98783.81;5130200;27;20051;-64
2022/04/13 00:03:36;;;;;;;1.60;1.40;;;;;;;3.47;100.00;98795.16;5129580;28;20077;-64
2022/04/13 00:06:03;;;;;;;3.03;1.10;;;;;;;3.42;100.00;98809.66;5130070;28;20142;-64
2022/04/13 00:08:29;;;;;;;2.42;1.30;;;;;;;3.39;100.00;98820.38;5129925;27;20057;-64
2022/04/13 00:10:55;;;;;;;3.83;1.40;;;;;;;3.41;100.00;98832.47;5129970;27;20399;-63
2022/04/13 00:13:21;;;;;;;2.15;1.10;;;;;;;3.33;100.00;98835.22;5129789;27;20047;-64
2022/04/13 00:15:47;;;;;;;2.05;1.38;;;;;;;3.29;100.00;98843.19;5129842;28;20556;-63
2022/04/13 00:18:14;;;;;;;1.38;1.20;;;;;;;3.24;100.00;98857.72;5132449;27;20043;-63
2022/04/13 00:20:40;;;;;;;2.10;0.90;;;;;;;3.21;100.00;98880.03;5133310;27;20047;-64
2022/04/13 00:23:07;;;;;;;3.50;1.38;;;;;;;3.17;100.00;98889.13;5133514;28;20047;-64
2022/04/13 00:25:36;;;;;;;2.13;1.20;;;;;;;3.21;100.00;98898.19;5133238;28;20076;-63
2022/04/13 00:28:02;;;;;;;1.80;1.20;;;;;;;3.15;100.00;98894.06;5133554;27;20180;-64
2022/04/13 00:30:28;;;;;;;2.03;1.48;;;;;;;3.15;100.00;98902.19;5132976;28;20054;-63
2022/04/13 00:32:54;;;;;;;2.28;1.25;;;;;;;3.05;100.00;98916.88;5133143;28;20051;-64
2022/04/13 00:35:20;;;;;;;2.92;1.20;;;;;;;3.07;100.00;98939.03;5133184;27;20059;-63
2022/04/13 00:37:47;;;;;;;1.90;1.10;;;;;;;3.08;100.00;98940.59;5133187;28;20413;-63
2022/04/13 00:40:14;;;;;;;1.77;1.23;;;;;;;3.02;100.00;98942.66;5133030;27;20047;-63
2022/04/13 00:42:40;;;;;;;6.53;1.52;;;;;;;3.02;100.00;98955.41;5132982;28;20047;-64
2022/04/13 00:45:07;;;;;;;4.43;1.50;;;;;;;2.95;100.00;98969.44;5133537;27;20478;-64
2022/04/13 00:47:38;;;;;;;3.28;1.38;;;;;;;2.97;100.00;98974.56;5133115;27;20115;-64
2022/04/13 00:50:05;;;;;;;5.93;1.30;;;;;;;2.89;100.00;98980.75;5133095;27;20047;-63
2022/04/13 00:52:34;;;;;;;1.65;1.27;;;;;;;2.88;100.00;98996.19;5132741;27;20050;-64
2022/04/13 00:55:06;;;;;;;2.97;1.67;;;;;;;2.78;100.00;99005.44;5132814;27;20099;-64
2022/04/13 00:57:35;;;;;;;4.85;1.35;;;;;;;2.80;100.00;99016.75;5132839;27;20557;-64
2022/04/13 01:00:04;;;;;;;1.80;1.40;;;;;;;2.80;100.00;99035.69;5132707;27;20061;-64
2022/04/13 01:02:31;;;;;;;4.95;1.48;;;;;;;2.79;100.00;99036.00;5132674;27;20047;-64
2022/04/13 01:05:01;;;;;;;1.63;1.20;;;;;;;2.76;100.00;99037.41;5132403;28;20051;-64
2022/04/13 01:07:27;;;;;;;6.95;1.38;;;;;;;2.74;100.00;99033.47;5132561;27;20046;-64
2022/04/13 01:09:54;;;;;;;2.25;1.40;;;;;;;2.75;100.00;99035.84;5132719;28;20088;-64
2022/04/13 01:12:21;;;;;;;1.73;1.33;;;;;;;2.76;100.00;99029.31;5132764;27;20050;-63
2022/04/13 01:14:47;;;;;;;1.88;1.27;;;;;;;2.76;100.00;99031.22;5132327;28;20055;-64
2022/04/13 01:17:13;;;;;;;2.38;1.48;;;;;;;2.78;100.00;99021.69;5132626;28;20047;-64
2022/04/13 01:19:39;;;;;;;3.40;1.20;;;;;;;2.78;100.00;99000.00;5132448;28;20073;-64
2022/04/13 01:22:19;;;;;;;2.42;1.35;;;;;;;2.73;100.00;98992.06;5132880;27;20521;-64
2022/04/13 01:24:46;;;;;;;3.13;1.30;;;;;;;2.73;100.00;98999.38;5132556;27;20481;-64
2022/04/13 01:27:14;;;;;;;4.00;1.80;;;;;;;2.62;100.00;99012.41;5132387;28;20043;-64
2022/04/13 01:29:41;;;;;;;3.15;1.35;;;;;;;2.67;100.00;99006.84;5132367;27;20051;-63
2022/04/13 01:32:08;;;;;;;1.45;1.10;;;;;;;2.61;100.00;99008.13;5132549;27;20104;-64
2022/04/13 01:34:34;;;;;;;2.42;1.50;;;;;;;2.58;100.00;99017.66;5132365;28;20529;-64
2022/04/13 01:37:00;;;;;;;2.00;1.65;;;;;;;2.59;100.00;99023.88;5132069;28;20050;-64
2022/04/13 01:39:28;;;;;;;1.42;1.20;;;;;;;2.62;100.00;99017.03;5132563;28;20053;-64
2022/04/13 01:41:54;;;;;;;2.35;1.40;;;;;;;2.64;100.00;99014.81;5131881;27;20625;-64
2022/04/13 01:44:21;;;;;;;3.47;1.63;;;;;;;2.63;100.00;99005.88;5132552;27;20272;-64
2022/04/13 01:46:47;;;;;;;5.22;1.40;;;;;;;2.65;100.00;99003.66;5131907;28;20043;-64
2022/04/13 01:49:14;;;;;;;3.42;1.50;;;;;;;2.60;100.00;98995.72;5132154;27;20047;-63
2022/04/13 01:51:40;;;;;;;1.85;1.50;;;;;;;2.60;100.00;98998.41;5131943;27;20047;-64
2022/04/13 01:54:06;;;;;;;2.10;1.30;;;;;;;2.64;100.00;99001.28;5131934;28;20043;-64
2022/04/13 01:56:33;;;;;;;1.25;1.10;;;;;;;2.58;100.00;98998.72;5131772;27;20054;-64
2022/04/13 01:59:00;;;;;;;1.60;1.40;;;;;;;2.56;100.00;98994.72;5131913;27;20055;-64
2022/04/13 02:01:26;;;;;;;2.15;1.40;;;;;;;2.48;100.00;99009.84;5131887;27;20490;-64
2022/04/13 02:03:52;;;;;;;1.75;1.23;;;;;;;2.50;100.00;99029.28;5131605;28;20055;-64
2022/04/13 02:06:19;;;;;;;2.40;1.13;;;;;;;2.52;100.00;99028.94;5131932;27;20119;-63
2022/04/13 02:08:45;;;;;;;1.15;1.10;;;;;;;2.53;100.00;99023.22;5131819;27;20047;-64
2022/04/13 02:11:11;;;;;;;3.55;1.73;;;;;;;2.54;100.00;99018.63;5132072;27;20058;-64
2022/04/13 02:13:39;;;;;;;2.38;1.42;;;;;;;2.46;100.00;99022.88;5131713;27;20128;-63
2022/04/13 02:16:06;;;;;;;2.67;1.55;;;;;;;2.39;100.00;99027.16;5131802;27;20907;-64
2022/04/13 02:18:32;;;;;;;1.65;1.55;;;;;;;2.32;100.00;99044.63;5131763;27;20051;-64
2022/04/13 02:20:58;;;;;;;2.28;1.20;;;;;;;2.28;100.00;99062.59;5131589;28;20410;-63
2022/04/13 02:23:24;;;;;;;5.03;1.73;;;;;;;2.23;100.00;99072.75;5131158;27;20055;-64
2022/04/13 02:25:51;;;;;;;3.70;1.48;;;;;;;2.15;100.00;99089.75;5131289;27;20055;-64
2022/04/13 02:28:17;;;;;;;3.55;1.92;;;;;;;2.16;100.00;99107.56;5131577;28;20047;-64
2022/04/13 02:30:44;;;;;;;2.25;1.60;;;;;;;2.17;100.00;99123.50;5131408;28;20054;-64
2022/04/13 02:33:10;;;;;;;2.55;1.50;;;;;;;2.21;100.00;99132.59;5131183;27;20058;-64
2022/04/13 02:35:36;;;;;;;4.85;1.70;;;;;;;2.11;100.00;99120.13;5131213;28;20429;-64
2022/04/13 02:38:02;;;;;;;1.35;1.25;;;;;;;2.18;100.00;99148.63;5131615;28;20084;-64
2022/04/13 02:40:29;;;;;;;2.28;1.40;;;;;;;2.11;100.00;99130.94;5130448;27;20510;-64
2022/04/13 02:42:56;;;;;;;2.53;1.20;;;;;;;2.10;100.00;99156.41;5131412;27;20050;-64
2022/04/13 02:45:22;;;;;;;2.83;1.50;;;;;;;2.03;100.00;99164.16;5131010;28;20055;-64
2022/04/13 02:47:49;;;;;;;2.10;1.30;;;;;;;1.99;100.00;99182.06;5131221;28;20047;-64
2022/04/13 02:50:16;;;;;;;1.77;1.30;;;;;;;1.96;100.00;99206.22;5130838;27;20051;-64
2022/04/13 02:52:43;;;;;;;2.22;1.80;;;;;;;1.91;100.00;99222.59;5131013;28;20043;-63
2022/04/13 02:55:10;;;;;;;2.20;1.30;;;;;;;1.81;100.00;99237.91;5130757;28;20498;-64
2022/04/13 02:57:36;;;;;;;4.18;1.58;;;;;;;1.72;100.00;99261.38;5131224;27;20074;-63
2022/04/13 03:00:04;;;;;;;1.73;1.40;;;;;;;1.73;100.00;99291.88;5130826;28;20055;-64
2022/04/13 03:02:30;;;;;;;8.10;1.75;;;;;;;1.71;100.00;99310.31;5130803;28;20523;-64
2022/04/13 03:04:57;;;;;;;3.88;1.40;;;;;;;1.67;100.00;99326.34;5130549;27;20524;-64
2022/04/13 03:07:25;;;;;;;2.05;1.40;;;;;;;1.63;100.00;99333.44;5130657;27;20047;-64
2022/04/13 03:09:51;;;;;;;3.08;1.90;;;;;;;1.64;100.00;99352.06;5131110;28;20080;-64
2022/04/13 03:12:17;;;;;;;2.92;1.33;;;;;;;1.62;100.00;99353.47;5130632;28;20047;-64
2022/04/13 03:14:44;;;;;;;2.22;1.35;;;;;;;1.61;100.00;99366.19;5130529;27;20047;-63
2022/04/13 03:17:10;;;;;;;3.65;1.50;;;;;;;1.54;100.00;99365.00;5130363;27;20421;-64
2022/04/13 03:19:36;;;;;;;2.72;1.42;;;;;;;1.55;100.00;99382.78;5130698;28;20059;-63
2022/04/13 03:22:03;;;;;;;1.77;1.42;;;;;;;1.51;100.00;99389.91;5130496;27;20059;-64
2022/04/13 03:24:30;;;;;;;4.85;1.42;;;;;;;1.50;100.00;99393.69;5130482;27;20047;-63
2022/04/13 03:26:57;;;;;;;1.67;1.20;;;;;;;1.57;100.00;99415.72;5130440;27;20043;-64
2022/04/13 03:29:23;;;;;;;2.75;1.42;;;;;;;1.55;100.00;99386.28;5130292;28;20047;-64
2022/04/13 03:31:49;;;;;;;1.67;1.38;;;;;;;1.57;100.00;99388.72;5130605;27;20430;-64
2022/04/13 03:34:20;;;;;;;3.58;1.42;;;;;;;1.56;100.00;99378.97;5130241;28;20096;-64
2022/04/13 03:36:46;;;;;;;5.00;1.42;;;;;;;1.60;100.00;99371.88;5130739;27;20059;-63
2022/04/13 03:39:13;;;;;;;5.18;1.88;;;;;;;1.60;100.00;99363.75;5130317;28;20424;-63
2022/04/13 03:41:40;;;;;;;3.50;1.42;;;;;;;1.64;100.00;99354.78;5130526;27;20088;-64
2022/04/13 03:44:07;;;;;;;5.80;1.55;;;;;;;1.58;100.00;99338.97;5130447;27;20050;-64
2022/04/13 03:46:33;;;;;;;1.70;1.60;;;;;;;1.57;100.00;99342.78;5130236;27;20398;-64
2022/04/13 03:49:00;;;;;;;2.63;1.45;;;;;;;1.58;100.00;99347.06;5130344;27;20080;-64
2022/04/13 03:51:26;;;;;;;3.30;1.52;;;;;;;1.60;100.00;99339.44;5130049;27;20096;-64
2022/04/13 03:53:53;;;;;;;2.33;1.27;;;;;;;1.54;100.00;99329.84;5133496;27;20047;-64
2022/04/13 03:56:20;;;;;;;3.92;1.73;;;;;;;1.60;100.00;99342.97;5133612;28;20055;-63
2022/04/13 03:58:46;;;;;;;4.53;1.83;;;;;;;1.59;100.00;99332.44;5133690;27;20050;-63
2022/04/13 04:01:12;;;;;;;5.20;1.58;;;;;;;1.65;100.00;99317.72;5133581;27;20459;-64
2022/04/13 04:03:38;;;;;;;1.30;1.20;;;;;;;1.75;100.00;99301.31;5133415;27;20054;-64
2022/04/13 04:06:05;;;;;;;3.60;1.67;;;;;;;1.75;100.00;99282.38;5133418;27;20055;-64
2022/04/13 04:08:32;;;;;;;2.28;1.70;;;;;;;1.77;100.00;99272.06;5133830;27;20051;-64
2022/04/13 04:10:59;;;;;;;2.05;1.42;;;;;;;1.81;100.00;99262.25;5133348;28;20462;-63
2022/04/13 04:13:26;;;;;;;3.08;2.10;;;;;;;1.91;100.00;99250.41;5133348;28;20047;-63
2022/04/13 04:15:52;;;;;;;7.07;1.70;;;;;;;1.92;100.00;99234.97;5133384;27;20409;-64
2022/04/13 04:18:18;;;;;;;5.18;1.55;;;;;;;1.97;100.00;99219.44;5133349;27;20096;-64
2022/04/13 04:20:44;;;;;;;7.60;1.92;;;;;;;2.01;100.00;99201.50;5133347;27;20050;-64
2022/04/13 04:23:10;;;;;;;2.17;1.50;;;;;;;2.06;100.00;99201.38;5133232;27;20510;-64
2022/04/13 04:25:37;;;;;;;3.78;1.70;;;;;;;2.11;100.00;99185.03;5133281;27;20051;-64
2022/04/13 04:28:03;;;;;;;2.88;1.30;;;;;;;2.22;100.00;99161.22;5133316;28;20097;-64
2022/04/13 04:30:31;;;;;;;2.95;1.90;;;;;;;2.29;100.00;99131.81;5133797;27;20043;-64
2022/04/13 04:32:57;;;;;;;1.88;1.30;;;;;;;2.41;100.00;99106.91;5133157;28;20134;-64
2022/04/13 04:35:24;;;;;;;4.50;1.42;;;;;;;2.51;100.00;99067.94;5133551;27;20055;-64
2022/04/13 04:37:50;;;;;;;1.20;1.10;;;;;;;2.63;100.00;99034.84;5133242;27;20058;-64
2022/04/13 04:40:16;;;;;;;2.58;1.50;;;;;;;2.70;100.00;99008.94;5133206;27;20594;-64
2022/04/13 04:42:46;;;;;;;4.07;1.55;;;;;;;2.75;100.00;98976.28;5132998;27;20063;-64
2022/04/13 04:45:13;;;;;;;3.72;1.45;;;;;;;2.85;100.00;98952.72;5133047;28;20542;-64
2022/04/13 04:47:40;;;;;;;2.83;1.48;;;;;;;2.91;100.00;98937.91;5132743;27;20070;-64
2022/04/13 04:50:07;;;;;;;2.92;1.83;;;;;;;3.06;100.00;98926.56;5132824;28;20107;-63
2022/04/13 04:52:33;;;;;;;2.33;1.35;;;;;;;3.10;100.00;98896.94;5132917;27;20498;-64
2022/04/13 04:55:00;;;;;;;2.00;1.23;;;;;;;3.22;100.00;98888.94;5132961;28;20055;-63
2022/04/13 04:57:26;;;;;;;3.20;1.40;;;;;;;3.36;100.00;98869.78;5133267;27;20599;-64
2022/04/13 04:59:52;;;;;;;2.65;1.52;;;;;;;3.51;100.00;98844.88;5132751;27;20481;-64
2022/04/13 05:02:18;;;;;;;4.28;1.85;;;;;;;3.58;100.00;98831.59;5133040;27;20134;-64
2022/04/13 05:04:45;;;;;;;6.30;1.50;;;;;;;3.66;100.00;98825.31;5131346;27;20418;-64
2022/04/13 05:07:11;;;;;;;3.13;1.23;;;;;;;3.75;100.00;98812.53;5132488;28;20058;-64
2022/04/13 05:09:38;;;;;;;5.57;1.90;;;;;;;3.89;100.00;98804.13;5132410;27;20058;-64
2022/04/13 05:12:05;;;;;;;8.95;1.80;;;;;;;3.89;100.00;98793.28;5135828;27;20046;-66
2022/04/13 05:14:31;;;;;;;3.92;1.30;;;;;;;3.95;100.00;98793.91;5151140;27;20543;-64
2022/04/13 05:16:57;;;;;;;3.30;1.50;;;;;;;4.18;100.00;98786.22;5150236;27;20047;-64
2022/04/13 05:19:23;;;;;;;3.22;1.55;;;;;;;4.40;100.00;98787.81;5152913;27;20467;-64
2022/04/13 05:21:50;;;;;;;3.38;2.10;;;;;;;4.53;100.00;98781.28;5152880;27;20046;-64
2022/04/13 05:24:16;;;;;;;3.65;1.63;;;;;;;4.69;100.00;98784.16;5152880;27;20103;-63
2022/04/13 05:26:43;;;;;;;4.75;1.70;;;;;;;5.08;100.00;98777.34;5152653;27;20050;-63
2022/04/13 05:29:09;;;;;;;5.07;2.20;;;;;;;5.33;100.00;98780.91;5132885;27;20055;-65
2022/04/13 05:31:35;;;;;;;6.97;1.98;;;;;;;5.66;100.00;98801.72;5132168;27;20062;-65
2022/04/13 05:34:01;;;;;;;2.70;1.67;;;;;;;5.80;100.00;98807.63;5145370;27;20054;-63
2022/04/13 05:36:28;;;;;;;3.30;1.70;;;;;;;6.03;100.00;98821.59;5153118;27;20050;-64
2022/04/13 05:38:55;;;;;;;3.08;2.05;;;;;;;6.20;100.00;98831.41;5152916;27;20046;-67
2022/04/13 05:41:21;;;;;;;1.70;1.60;;;;;;;6.23;100.00;98843.53;5152957;27;20054;-66
2022/04/13 05:43:47;;;;;;;4.40;2.20;;;;;;;6.22;100.00;98848.19;5152857;27;20066;-66
2022/04/13 05:46:13;;;;;;;5.82;1.77;;;;;;;6.31;100.00;98864.38;5150307;27;20049;-67
2022/04/13 05:48:40;;;;;;;5.35;2.00;;;;;;;6.34;100.00;98864.50;5152797;27;20047;-67
2022/04/13 05:51:08;;;;;;;3.97;1.45;;;;;;;6.54;100.00;98870.13;5152756;27;20051;-65
2022/04/13 05:53:35;;;;;;;9.02;1.92;;;;;;;6.68;100.00;98880.63;5152642;27;20050;-67
2022/04/13 05:56:02;;;;;;;6.45;1.80;;;;;;;6.82;100.00;98886.47;5152508;27;20054;-70
2022/04/13 05:58:28;;;;;;;5.72;1.73;;;;;;;7.04;100.00;98906.94;5140060;27;20051;-67
2022/04/13 06:00:55;;;;;;;8.10;2.15;;;;;;;7.24;100.00;98924.25;5131987;28;20085;-67
2022/04/13 06:03:23;;;;;;;3.35;1.80;;;;;;;7.39;100.00;98961.66;5145458;27;20054;-63
2022/04/13 06:05:50;;;;;;;4.13;1.90;;;;;;;7.28;100.00;98980.44;5145277;27;20101;-68
2022/04/13 06:08:16;;;;;;;4.63;1.52;;;;;;;7.32;100.00;98967.69;5150563;27;20051;-65
2022/04/13 06:10:42;;;;;;;4.28;1.80;;;;;;;7.40;100.00;98974.16;5151680;27;20110;-63
2022/04/13 06:13:09;;;;;;;5.57;1.90;;;;;;;7.65;100.00;98965.84;5152519;27;20047;-65
2022/04/13 06:15:36;;;;;;;4.28;1.73;;;;;;;7.88;100.00;98983.22;5143749;27;20058;-62
2022/04/13 06:18:02;;;;;;;2.78;1.52;;;;;;;8.08;100.00;98988.78;5143362;27;20043;-63
2022/04/13 06:20:28;;;;;;;7.43;2.17;;;;;;;8.27;100.00;99004.47;5150004;27;20212;-63
2022/04/13 06:22:54;;;;;;;3.55;1.35;;;;;;;8.24;100.00;99028.59;5140520;27;20107;-63
2022/04/13 06:25:21;;;;;;;2.78;1.80;;;;;;;7.99;100.00;99035.34;5148724;27;20202;-62
2022/04/13 06:27:47;;;;;;;2.55;1.55;;;;;;;7.88;100.00;99028.81;5137922;27;20136;-62
2022/04/13 06:30:14;;;;;;;3.33;1.95;;;;;;;7.84;100.00;99028.72;5135056;27;20504;-63
2022/04/13 06:32:42;;;;;;;3.72;1.75;;;;;;;8.15;100.00;99018.97;5138367;27;20096;-63
2022/04/13 06:35:11;;;;;;;4.30;1.92;;;;;;;8.32;100.00;99045.94;5140215;27;20482;-62
2022/04/13 06:37:38;;;;;;;4.43;1.85;;;;;;;8.40;100.00;99060.59;5133250;27;20055;-63
2022/04/13 06:40:05;;;;;;;9.70;1.98;;;;;;;8.53;100.00;99083.16;5133789;27;20047;-62
2022/04/13 06:42:33;;;;;;;3.58;2.30;;;;;;;8.67;100.00;99078.84;5136882;27;20055;-63
2022/04/13 06:44:59;;;;;;;3.60;2.15;;;;;;;8.85;100.00;99089.38;5151519;27;20057;-62
2022/04/13 06:47:29;;;;;;;4.40;2.22;;;;;;;9.02;100.00;99101.88;5142266;27;20078;-63
2022/04/13 06:49:56;;;;;;;4.88;2.30;;;;;;;9.30;100.00;99116.22;5130894;27;20047;-63
2022/04/13 06:52:22;;;;;;;5.22;2.20;;;;;;;9.50;100.00;99127.97;5131046;27;20051;-63
2022/04/13 06:54:48;;;;;;;9.10;3.25;;;;;;;9.63;100.00;99145.84;5130552;28;20058;-63
2022/04/13 06:57:14;;;;;;;4.55;2.65;;;;;;;9.68;100.00;99146.72;5132123;27;20047;-62
2022/04/13 06:59:40;;;;;;;7.03;2.45;;;;;;;9.80;100.00;99152.06;5130227;27;20104;-63
2022/04/13 07:02:10;;;;;;;5.55;2.00;;;;;;;9.90;100.00;99170.66;5130499;27;20047;-63
2022/04/13 07:04:37;;;;;;;4.18;2.22;;;;;;;10.24;100.00;99168.19;5129940;28;20058;-63
2022/04/13 07:07:03;;;;;;;3.70;2.22;;;;;;;10.40;100.00;99201.00;5128670;27;20053;-63
2022/04/13 07:09:30;;;;;;;7.47;2.30;;;;;;;10.49;100.00;99209.78;5129860;28;20054;-62
2022/04/13 07:11:56;;;;;;;3.08;2.05;;;;;;;10.32;100.00;99198.13;5143794;27;20051;-63
2022/04/13 07:14:22;;;;;;;3.65;2.00;;;;;;;10.44;100.00;99199.13;5148706;27;20051;-63
2022/04/13 07:16:48;;;;;;;7.13;1.92;;;;;;;10.56;100.00;99209.91;5139472;27;20047;-66
2022/04/13 07:19:14;;;;;;;5.28;1.77;;;;;;;10.60;100.00;99219.00;5151400;27;20046;-68
2022/04/13 07:21:41;;;;;;;2.33;1.50;;;;;;;10.73;100.00;99223.16;5151151;27;20043;-67
2022/04/13 07:24:07;;;;;;;5.13;2.85;;;;;;;10.79;100.00;99223.66;5151310;27;20055;-68
2022/04/13 07:26:34;;;;;;;6.10;2.30;;;;;;;11.02;100.00;99237.38;5147732;27;20099;-64
2022/04/13 07:29:00;;;;;;;2.83;1.75;;;;;;;11.18;100.00;99270.19;5149509;27;20046;-70
2022/04/13 07:31:26;;;;;;;5.07;1.77;;;;;;;11.28;100.00;99284.06;5132277;27;20047;-70
2022/04/13 07:33:53;;;;;;;10.48;1.90;;;;;;;11.43;100.00;99281.56;5117385;28;20062;-66
2022/04/13 07:36:20;;;;;;;23.80;2.25;;;;;;;11.35;100.00;99305.34;5135514;27;20113;-64
2022/04/13 07:38:47;;;;;;;1.63;1.52;;;;;;;11.28;100.00;99308.78;5134415;27;20058;-63
2022/04/13 07:41:13;;;;;;;11.05;2.25;;;;;;;11.08;100.00;99334.69;5141116;27;20139;-62
2022/04/13 07:43:39;;;;;;;3.60;1.77;;;;;;;11.18;100.00;99306.63;5139190;27;20084;-62
2022/04/13 07:46:05;;;;;;;2.85;1.60;;;;;;;11.89;100.00;99319.97;5140614;27;20053;-64
2022/04/13 07:48:31;;;;;;;2.40;1.30;;;;;;;11.61;100.00;99353.25;5136855;27;20058;-64
2022/04/13 07:50:58;;;;;;;8.30;2.30;;;;;;;11.74;100.00;99333.47;5149548;27;20051;-63
2022/04/13 07:53:24;;;;;;;5.05;1.88;;;;;;;11.76;100.00;99338.56;5145504;27;20043;-64
2022/04/13 07:55:51;;;;;;;7.05;1.90;;;;;;;12.21;100.00;99340.47;5146236;27;20437;-63
2022/04/13 07:58:17;;;;;;;4.63;1.65;;;;;;;12.22;100.00;99344.00;5148992;27;20076;-64
2022/04/13 08:00:43;;;;;;;9.05;1.65;;;;;;;12.44;100.00;99362.38;5132173;27;20057;-63
2022/04/13 08:03:09;;;;;;;4.18;1.60;;;;;;;12.61;100.00;99365.75;5133790;27;20062;-64
2022/04/13 08:05:35;;;;;;;5.13;1.60;;;;;;;12.74;100.00;99363.53;5132868;27;20055;-63
2022/04/13 08:08:02;;;;;;;2.67;1.33;;;;;;;12.90;100.00;99355.88;5137141;27;20055;-64
2022/04/13 08:10:28;;;;;;;5.15;1.17;;;;;;;12.97;98.80;99369.72;5133290;27;20054;-64
2022/04/13 08:12:55;;;;;;;3.75;1.50;;;;;;;12.91;95.10;99388.50;5131453;27;20047;-64
2022/04/13 08:15:21;;;;;;;4.50;1.77;;;;;;;12.93;96.61;99374.41;5133033;27;20047;-63
2022/04/13 08:17:47;;;;;;;4.57;1.60;;;;;;;12.90;95.44;99381.44;5138285;27;20096;-63
2022/04/13 08:20:14;;;;;;;4.10;1.88;;;;;;;12.82;95.27;99389.97;5138161;27;20046;-64
2022/04/13 08:22:41;;;;;;;7.45;1.73;;;;;;;12.27;96.55;99395.91;5153433;27;20494;-63
2022/04/13 08:25:09;;;;;;;3.53;1.80;;;;;;;12.56;100.00;99368.81;5151959;27;20050;-64
2022/04/13 08:27:35;;;;;;;9.23;1.70;;;;;;;12.92;97.56;99383.78;5146788;27;20051;-63
2022/04/13 08:30:02;;;;;;;6.70;1.30;;;;;;;13.13;93.92;99386.81;5133069;28;20047;-63
2022/04/13 08:32:28;;;;;;;6.65;1.50;;;;;;;13.18;95.22;99388.41;5142789;27;20051;-63
2022/04/13 08:34:55;;;;;;;3.28;1.75;;;;;;;13.43;91.27;99388.72;5150930;27;20057;-63
2022/04/13 08:37:22;;;;;;;6.78;1.88;;;;;;;13.15;91.24;99400.97;5145442;27;20047;-63
2022/04/13 08:39:49;;;;;;;3.45;1.67;;;;;;;12.91;93.15;99385.75;5147197;27;20054;-64
2022/04/13 08:42:24;;;;;;;2.75;1.35;;;;;;;13.34;93.92;99371.72;5153451;27;20062;-64
2022/04/13 08:44:51;;;;;;;2.47;1.52;;;;;;;13.67;90.12;99389.34;5152714;27;20066;-63
2022/04/13 08:47:20;;;;;;;5.25;2.08;;;;;;;13.89;89.19;99393.84;5132623;28;20141;-64
2022/04/13 08:49:49;;;;;;;3.03;1.80;;;;;;;13.80;87.48;99394.19;5132625;27;20047;-64
2022/04/13 08:52:19;;;;;;;6.00;3.58;;;;;;;13.64;84.01;99407.41;5132403;28;20051;-64
2022/04/13 08:54:53;;;;;;;2.72;1.20;;;;;;;13.57;85.90;99396.31;5139059;27;20054;-64
2022/04/13 08:57:22;;;;;;;4.22;1.35;;;;;;;13.73;85.91;99405.13;5153308;27;20053;-64
2022/04/13 09:00:02;;;;;;;4.00;1.65;;;;;;;13.95;89.43;99391.53;5153133;27;20057;-64
2022/04/13 09:02:40;;;;;;;1.55;1.27;;;;;;;13.67;84.54;99409.41;5152946;27;20436;-63
2022/04/13 09:05:10;;;;;;;4.65;1.30;;;;;;;13.23;85.28;99407.38;5152577;27;20058;-65
2022/04/13 09:07:37;;;;;;;2.33;1.25;;;;;;;13.30;88.29;99403.94;5153152;27;20051;-64
2022/04/13 09:10:07;;;;;;;3.63;1.00;;;;;;;13.78;83.37;99420.53;5145219;27;20050;-69
2022/04/13 09:12:37;;;;;;;23.70;3.55;;;;;;;14.22;84.55;99403.16;5132860;27;20108;-68
2022/04/13 09:15:04;;;;;;;3.40;1.60;;;;;;;14.05;85.79;99399.88;5132449;27;20792;-66
2022/04/13 09:17:31;;;;;;;2.60;1.58;;;;;;;14.09;87.58;99400.72;5132714;28;20852;-65
2022/04/13 09:19:58;;;;;;;3.58;1.23;;;;;;;13.72;83.91;99419.28;5137662;27;20915;-65
2022/04/13 09:22:26;;;;;;;5.30;1.33;;;;;;;13.57;85.33;99407.34;5144159;27;20073;-65
2022/04/13 09:24:52;;;;;;;5.43;1.55;;;;;;;13.85;85.40;99399.31;5145906;27;20055;-64
2022/04/13 09:27:20;;;;;;;5.03;1.65;;;;;;;14.12;88.33;99401.88;5141770;27;20845;-67
2022/04/13 09:29:46;;;;;;;2.35;1.45;;;;;;;14.28;86.09;99401.63;5153234;27;20368;-66
2022/04/13 09:32:13;;;;;;;1.17;1.05;;;;;;;14.17;80.34;99425.56;5153117;27;20051;-63
2022/04/13 09:34:39;;;;;;;2.67;1.15;;;;;;;14.53;84.80;99397.09;5153148;27;20053;-62
2022/04/13 09:37:06;;;;;;;2.92;1.25;;;;;;;15.12;80.59;99410.72;5150765;27;20083;-62
2022/04/13 09:39:33;;;;;;;2.75;0.93;;;;;;;14.87;75.34;99420.91;5142316;27;20107;-60
2022/04/13 09:42:02;;;;;;;5.38;1.35;;;;;;;14.37;77.17;99432.41;5134514;27;20459;-63
2022/04/13 09:44:29;;;;;;;7.38;2.83;;;;;;;13.76;77.86;99431.94;5146876;27;20053;-62
2022/04/13 09:47:05;;;;;;;1.75;1.17;;;;;;;13.71;77.80;99432.25;5145427;27;20134;-63
2022/04/13 09:49:31;;;;;;;3.72;1.27;;;;;;;13.80;77.99;99432.75;5150118;27;20540;-63
2022/04/13 09:51:59;;;;;;;6.10;1.90;;;;;;;13.82;81.80;99415.81;5142883;27;20111;-63
2022/04/13 09:54:26;;;;;;;2.28;1.52;;;;;;;14.13;79.38;99431.84;5132902;27;20417;-65
2022/04/13 09:56:54;;;;;;;4.00;1.50;;;;;;;14.49;80.67;99417.50;5147698;27;20519;-63
2022/04/13 09:59:27;;;;;;;2.20;1.27;;;;;;;14.80;77.89;99427.19;5152448;27;20072;-63
2022/04/13 10:01:53;;;;;;;1.93;1.33;;;;;;;14.63;76.83;99428.66;5152556;27;20043;-64
2022/04/13 10:04:26;;;;;;;2.75;1.10;;;;;;;14.57;75.53;99430.22;5152071;27;20058;-64
2022/04/13 10:06:52;;;;;;;6.13;1.30;;;;;;;14.87;75.82;99426.41;5137820;27;20051;-64
2022/04/13 10:09:19;;;;;;;2.53;1.40;;;;;;;14.85;81.70;99415.75;5131672;28;20088;-68
2022/04/13 10:11:58;;;;;;;4.68;1.60;;;;;;;15.03;80.59;99416.63;5132132;27;20092;-70
2022/04/13 10:14:24;;;;;;;2.42;1.55;;;;;;;15.39;80.92;99415.94;5131188;28;20050;-66
2022/04/13 10:16:52;;;;;;;1.88;1.00;;;;;;;15.27;74.81;99433.69;5145209;27;20050;-62
2022/04/13 10:19:19;;;;;;;2.67;1.25;;;;;;;15.29;76.18;99423.00;5143586;27;20061;-66
2022/04/13 10:21:47;;;;;;;3.30;2.10;;;;;;;15.32;81.58;99419.47;5144464;27;20050;-63
2022/04/13 10:24:25;;;;;;;1.63;1.35;;;;;;;15.66;79.50;99408.94;5151944;27;20054;-64
2022/04/13 10:27:09;;;;;;;4.75;1.20;;;;;;;15.50;79.99;99409.25;5140195;27;20054;-62
2022/04/13 10:29:38;;;;;;;1.88;1.13;;;;;;;15.65;78.29;99414.81;5140938;27;20070;-62
2022/04/13 10:32:06;;;;;;;4.65;1.48;;;;;;;15.18;79.43;99419.44;5139604;27;20049;-63
2022/04/13 10:34:34;;;;;;;10.70;1.83;;;;;;;15.00;77.29;99414.66;5150100;27;20050;-65
2022/04/13 10:37:00;;;;;;;2.78;1.33;;;;;;;14.96;79.90;99416.59;5136837;27;20047;-65
2022/04/13 10:39:30;;;;;;;4.95;1.60;;;;;;;14.70;77.80;99401.09;5131568;27;20484;-63
2022/04/13 10:41:56;;;;;;;3.10;1.70;;;;;;;14.71;78.38;99399.91;5136661;27;20450;-66
2022/04/13 10:44:30;;;;;;;3.15;0.80;;;;;;;15.22;76.30;99396.16;5134502;27;20460;-65
2022/04/13 10:47:00;;;;;;;2.60;0.77;;;;;;;15.30;69.23;99410.81;5131173;28;20047;-65
2022/04/13 10:49:30;;;;;;;6.93;1.33;;;;;;;15.00;67.42;99428.44;5130984;27;20049;-62
2022/04/13 10:52:03;;;;;;;5.00;1.00;;;;;;;14.63;66.65;99433.38;5131247;28;20100;-63
2022/04/13 10:54:35;;;;;;;8.13;1.50;;;;;;;14.97;71.42;99423.69;5138290;27;20068;-62
2022/04/13 10:57:05;;;;;;;5.55;1.40;;;;;;;14.79;72.34;99420.88;5136420;27;20059;-64
2022/04/13 10:59:43;;;;;;;3.08;1.38;;;;;;;15.22;73.79;99411.94;5131060;27;20088;-65
2022/04/13 11:02:24;;;;;;;2.33;1.70;;;;;;;15.37;72.77;99413.56;5130823;27;20051;-63
2022/04/13 11:04:52;;;;;;;6.05;1.23;;;;;;;15.22;69.54;99425.75;5130430;28;20123;-64
2022/04/13 11:07:19;;;;;;;1.98;1.20;;;;;;;15.11;71.44;99417.44;5145452;27;20058;-64
2022/04/13 11:09:48;;;;;;;2.55;1.10;;;;;;;15.09;74.11;99405.97;5151583;27;20047;-64
2022/04/13 11:12:14;;;;;;;2.85;1.05;;;;;;;14.79;73.38;99406.25;5151506;27;20102;-62
2022/04/13 11:14:51;;;;;;;2.67;0.93;;;;;;;14.93;77.54;99397.28;5151370;27;20137;-66
2022/04/13 11:17:25;;;;;;;1.15;0.90;;;;;;;14.91;71.96;99411.44;5134746;27;20055;-66
2022/04/13 11:19:51;;;;;;;;;;;;;;;14.62;74.57;99402.22;5131311;28;20107;-65
2022/04/13 11:22:19;;;;;;;2.50;1.00;;;;;;;14.52;76.29;99398.25;5130651;28;19944;-64
2022/04/13 11:24:58;;;;;;;5.47;1.10;;;;;;;14.46;73.36;99408.06;5130721;28;20051;-65
2022/04/13 11:27:25;;;;;;;1.23;0.90;;;;;;;14.30;79.76;99400.06;5145281;27;20413;-66
2022/04/13 11:30:00;;;;;;;0.98;0.70;;;;;;;14.00;75.82;99402.22;5151190;27;20524;-65
2022/04/13 11:32:29;;;;;;;1.55;0.80;;;;;;;13.58;80.49;99387.66;5151162;27;20577;-66